createdAt,value
2023-11-18T00:01:49.673Z,4.00
2023-11-18T00:05:52.615Z,4.12
2023-11-18T00:09:55.414Z,4.13
2023-11-18T00:14:00.899Z,3.90
2023-11-18T00:18:04.656Z,4.18
2023-11-18T00:22:08.321Z,4.03
2023-11-18T00:26:11.578Z,4.29
2023-11-18T00:30:16.514Z,4.32
2023-11-18T00:34:19.560Z,4.32
2023-11-18T00:38:22.270Z,4.31
2023-11-18T00:42:25.038Z,4.43
2023-11-18T00:46:29.622Z,3.77
2023-11-18T00:50:32.732Z,4.36
2023-11-18T00:54:36.980Z,4.38
2023-11-18T00:58:41.640Z,3.48
2023-11-18T01:02:48.189Z,4.28
2023-11-18T01:06:52.546Z,4.40
2023-11-18T01:10:55.522Z,4.38
2023-11-18T01:14:58.358Z,4.35
2023-11-18T01:19:02.569Z,4.38
2023-11-18T01:23:05.783Z,4.39
2023-11-18T01:27:10.913Z,4.04
2023-11-18T01:31:14.588Z,4.27
2023-11-18T01:35:19.109Z,4.36
2023-11-18T01:39:22.109Z,4.36
2023-11-18T01:43:25.209Z,4.39
2023-11-18T01:47:28.982Z,4.41
2023-11-18T01:51:33.176Z,4.30
2023-11-18T01:55:36.555Z,4.23
2023-11-18T01:59:41.758Z,4.30
2023-11-18T02:03:44.800Z,4.31
2023-11-18T02:07:49.167Z,4.30
2023-11-18T02:11:56.192Z,4.28
2023-11-18T02:15:59.688Z,4.31
2023-11-18T02:20:07.353Z,4.42
2023-11-18T02:24:12.426Z,4.43
2023-11-18T02:28:16.972Z,3.47
2023-11-18T02:32:24.953Z,4.42
2023-11-18T02:36:37.194Z,4.34
2023-11-18T02:40:45.343Z,4.31
2023-11-18T02:44:51.125Z,4.35
2023-11-18T02:48:55.158Z,3.27
2023-11-18T02:52:58.237Z,4.43
2023-11-18T02:57:01.073Z,4.48
2023-11-18T03:01:06.343Z,4.39
2023-11-18T03:05:12.920Z,4.36
2023-11-18T03:09:16.543Z,4.46
2023-11-18T03:13:19.424Z,4.37
2023-11-18T03:17:24.143Z,4.49
2023-11-18T03:21:27.751Z,4.52
2023-11-18T03:25:30.685Z,3.42
2023-11-18T03:29:33.551Z,4.54
2023-11-18T03:33:37.756Z,4.54
2023-11-18T03:37:43.266Z,4.53
2023-11-18T03:41:46.925Z,4.52
2023-11-18T03:45:49.671Z,4.48
2023-11-18T03:49:56.042Z,3.31
2023-11-18T03:53:58.906Z,3.96
2023-11-18T03:58:02.443Z,4.53
2023-11-18T04:02:05.654Z,4.32
2023-11-18T04:06:10.445Z,4.54
2023-11-18T04:10:13.476Z,4.54
2023-11-18T04:14:16.202Z,4.51
2023-11-18T04:18:19.296Z,4.13
2023-11-18T04:22:23.573Z,4.41
2023-11-18T04:26:26.811Z,4.40
2023-11-18T04:30:30.052Z,4.45
2023-11-18T04:34:34.070Z,4.42
2023-11-18T04:38:38.172Z,4.42
2023-11-18T04:42:41.611Z,4.24
2023-11-18T04:46:45.138Z,4.38
2023-11-18T04:50:47.977Z,4.42
2023-11-18T04:54:52.178Z,4.37
2023-11-18T04:58:56.103Z,4.44
2023-11-18T05:03:00.238Z,4.41
2023-11-18T05:07:03.500Z,4.27
2023-11-18T05:11:08.085Z,4.40
2023-11-18T05:15:11.033Z,4.38
2023-11-18T05:19:13.929Z,4.38
2023-11-18T05:23:17.145Z,4.39
2023-11-18T05:27:21.722Z,4.36
2023-11-18T05:31:24.453Z,4.36
2023-11-18T05:35:29.617Z,4.41
2023-11-18T05:39:32.769Z,4.34
2023-11-18T05:43:41.194Z,4.42
2023-11-18T05:47:44.358Z,4.28
2023-11-18T05:51:47.425Z,4.38
2023-11-18T05:55:51.069Z,4.47
2023-11-18T05:59:56.144Z,4.50
2023-11-18T06:03:59.095Z,4.39
2023-11-18T06:08:01.973Z,4.47
2023-11-18T06:12:10.043Z,4.57
2023-11-18T06:16:16.713Z,4.14
2023-11-18T06:20:21.625Z,4.49
2023-11-18T06:24:24.380Z,4.60
2023-11-18T06:28:27.333Z,4.61
2023-11-18T06:32:32.189Z,4.64
2023-11-18T06:36:34.965Z,4.53
2023-11-18T06:40:37.890Z,4.65
2023-11-18T06:44:40.602Z,4.50
2023-11-18T06:48:44.863Z,4.73
2023-11-18T06:52:48.189Z,4.73
2023-11-18T06:56:52.696Z,3.74
2023-11-18T07:00:55.501Z,4.74
2023-11-18T07:04:59.760Z,4.78
2023-11-18T07:09:02.605Z,4.77
2023-11-18T07:13:05.309Z,4.80
2023-11-18T07:17:09.721Z,4.82
2023-11-18T07:21:15.655Z,4.91
2023-11-18T07:25:18.519Z,4.90
2023-11-18T07:29:21.378Z,4.91
2023-11-18T07:33:24.374Z,4.92
2023-11-18T07:37:29.244Z,4.57
2023-11-18T07:41:34.106Z,4.99
2023-11-18T07:45:38.696Z,4.95
2023-11-18T07:49:42.366Z,5.03
2023-11-18T07:53:46.477Z,5.03
2023-11-18T07:57:49.083Z,5.11
2023-11-18T08:01:51.897Z,5.17
2023-11-18T08:05:54.644Z,5.17
2023-11-18T08:09:58.914Z,5.26
2023-11-18T08:14:01.737Z,4.94
2023-11-18T08:18:05.313Z,5.24
2023-11-18T08:22:10.288Z,5.33
2023-11-18T08:26:15.490Z,5.24
2023-11-18T08:30:19.428Z,5.45
2023-11-18T08:34:22.334Z,5.39
2023-11-18T08:38:25.644Z,5.44
2023-11-18T08:42:30.533Z,5.22
2023-11-18T08:46:33.365Z,5.44
2023-11-18T08:50:37.307Z,5.54
2023-11-18T08:54:59.897Z,5.61
2023-11-18T08:59:04.553Z,5.63
2023-11-18T09:03:07.760Z,5.63
2023-11-18T09:07:11.371Z,5.65
2023-11-18T09:11:16.809Z,5.74
2023-11-18T09:15:23.693Z,5.73
2023-11-18T09:19:26.538Z,5.78
2023-11-18T09:23:30.041Z,5.74
2023-11-18T09:27:34.217Z,5.78
2023-11-18T09:31:38.778Z,5.74
2023-11-18T09:35:42.177Z,5.77
2023-11-18T09:39:47.156Z,5.82
2023-11-18T09:43:54.226Z,5.82
2023-11-18T09:48:02.664Z,5.79
2023-11-18T09:52:07.048Z,5.82
2023-11-18T09:56:19.950Z,5.70
2023-11-18T10:00:27.619Z,5.87
2023-11-18T10:04:32.744Z,5.81
2023-11-18T10:08:39.189Z,5.85
2023-11-18T10:12:42.660Z,5.87
2023-11-18T10:16:48.129Z,5.93
2023-11-18T10:20:53.424Z,5.86
2023-11-18T10:24:56.740Z,5.87
2023-11-18T10:29:08.294Z,5.90
2023-11-18T10:33:12.907Z,5.92
2023-11-18T10:37:18.266Z,5.96
2023-11-18T10:41:21.432Z,5.95
2023-11-18T10:45:28.865Z,5.96
2023-11-18T10:49:38.384Z,5.84
2023-11-18T10:53:54.840Z,6.08
2023-11-18T10:58:02.660Z,5.32
2023-11-18T11:02:22.756Z,6.12
2023-11-18T11:06:26.289Z,5.75
2023-11-18T11:10:30.590Z,6.42
2023-11-18T11:14:38.066Z,6.38
2023-11-18T11:18:46.417Z,5.98
2023-11-18T11:22:59.480Z,6.40
2023-11-18T11:27:18.365Z,6.42
2023-11-18T11:31:24.777Z,6.43
2023-11-18T11:35:34.370Z,6.34
2023-11-18T11:39:37.902Z,6.29
2023-11-18T11:43:42.471Z,6.40
2023-11-18T11:47:47.703Z,6.28
2023-11-18T11:51:55.332Z,5.43
2023-11-18T11:56:06.633Z,6.55
2023-11-18T12:00:17.671Z,6.53
2023-11-18T12:04:26.732Z,6.52
2023-11-18T12:08:31.197Z,6.26
2023-11-18T12:12:36.081Z,6.58
2023-11-18T12:17:12.670Z,6.68
2023-11-18T12:21:56.123Z,6.58
2023-11-18T12:25:59.757Z,6.59
2023-11-18T12:30:03.374Z,6.59
2023-11-18T12:34:11.531Z,6.61
2023-11-18T12:38:59.058Z,6.69
2023-11-18T12:43:14.575Z,6.73
2023-11-18T12:47:22.222Z,6.36
2023-11-18T12:51:26.550Z,6.80
2023-11-18T12:55:32.641Z,5.99
2023-11-18T12:59:35.814Z,5.31
2023-11-18T13:03:39.014Z,5.88
2023-11-18T13:07:44.509Z,5.41
2023-11-18T13:11:48.721Z,5.68
2023-11-18T13:15:55.020Z,6.82
2023-11-18T13:19:59.386Z,5.94
2023-11-18T13:24:09.874Z,6.06
2023-11-18T13:28:13.862Z,6.88
2023-11-18T13:36:34.340Z,6.86
2023-11-18T13:40:48.959Z,6.98
2023-11-18T13:44:54.144Z,6.92
2023-11-18T13:48:57.414Z,6.87
2023-11-18T13:53:00.387Z,6.89
2023-11-18T13:57:05.285Z,6.89
2023-11-18T14:01:09.687Z,6.87
2023-11-18T14:05:18.483Z,6.98
2023-11-18T14:09:22.676Z,6.93
2023-11-18T14:13:36.192Z,6.95
2023-11-18T14:17:39.068Z,6.96
2023-11-18T14:21:42.772Z,6.94
2023-11-18T14:25:45.511Z,6.99
2023-11-18T14:29:50.031Z,6.99
2023-11-18T14:33:52.774Z,7.00
2023-11-18T14:37:55.763Z,6.99
2023-11-18T14:41:59.295Z,7.01
2023-11-18T14:46:04.991Z,7.05
2023-11-18T14:50:19.005Z,7.08
2023-11-18T14:54:22.021Z,6.83
2023-11-18T14:58:24.781Z,7.09
2023-11-18T15:02:29.888Z,7.09
2023-11-18T15:06:32.753Z,7.06
2023-11-18T15:10:35.491Z,7.04
2023-11-18T15:14:40.216Z,7.01
2023-11-18T15:18:48.437Z,5.90
2023-11-18T15:22:51.932Z,6.81
2023-11-18T15:26:55.561Z,6.91
2023-11-18T15:30:58.477Z,6.93
2023-11-18T15:35:02.691Z,6.70
2023-11-18T15:39:07.179Z,6.91
2023-11-18T15:43:12.784Z,6.90
2023-11-18T15:47:16.380Z,6.89
2023-11-18T15:51:23.585Z,6.75
2023-11-18T15:55:26.504Z,6.85
2023-11-18T15:59:29.713Z,6.88
2023-11-18T16:03:32.554Z,6.06
2023-11-18T16:07:36.762Z,6.89
2023-11-18T16:11:39.508Z,6.87
2023-11-18T16:15:42.490Z,6.88
2023-11-18T16:19:45.871Z,6.88
2023-11-18T16:23:50.472Z,6.85
2023-11-18T16:27:54.394Z,6.85
2023-11-18T16:31:57.421Z,6.83
2023-11-18T16:36:00.852Z,6.83
2023-11-18T16:40:05.848Z,6.83
2023-11-18T16:44:10.857Z,6.85
2023-11-18T16:48:13.564Z,6.82
2023-11-18T16:52:16.922Z,6.84
2023-11-18T16:56:21.339Z,6.40
2023-11-18T17:00:24.994Z,6.81
2023-11-18T17:04:27.907Z,6.82
2023-11-18T17:08:31.290Z,6.47
2023-11-18T17:12:36.816Z,6.80
2023-11-18T17:16:39.666Z,6.79
2023-11-18T17:20:42.668Z,6.80
2023-11-18T17:24:45.490Z,6.81
2023-11-18T17:28:51.689Z,6.82
2023-11-18T17:32:54.859Z,6.82
2023-11-18T17:36:58.166Z,6.82
2023-11-18T17:41:00.911Z,6.85
2023-11-18T17:45:06.658Z,6.84
2023-11-18T17:49:10.042Z,6.61
2023-11-18T17:53:12.815Z,6.90
2023-11-18T17:57:16.119Z,6.90
2023-11-18T18:01:21.183Z,6.91
2023-11-18T18:05:25.477Z,5.96
2023-11-18T18:09:28.615Z,6.90
2023-11-18T18:13:32.707Z,6.89
2023-11-18T18:17:37.950Z,6.89
2023-11-18T18:21:41.250Z,6.93
2023-11-18T18:25:44.388Z,6.92
2023-11-18T18:29:47.421Z,6.94
2023-11-18T18:33:52.351Z,6.94
2023-11-18T18:37:55.165Z,6.93
2023-11-18T18:41:58.451Z,6.95
2023-11-18T18:46:01.399Z,6.99
2023-11-18T18:50:08.623Z,7.01
2023-11-18T18:54:12.347Z,7.02
2023-11-18T18:58:15.175Z,7.05
2023-11-18T19:02:18.041Z,7.12
2023-11-18T19:06:22.271Z,7.15
2023-11-18T19:10:26.172Z,7.17
2023-11-18T19:14:29.110Z,6.98
2023-11-18T19:18:31.884Z,6.98
2023-11-18T19:22:36.275Z,7.21
2023-11-18T19:26:39.183Z,7.28
2023-11-18T19:30:41.928Z,7.31
2023-11-18T19:34:44.645Z,7.29
2023-11-18T19:38:49.001Z,7.30
2023-11-18T19:42:51.990Z,7.29
2023-11-18T19:46:54.732Z,7.29
2023-11-18T19:50:57.816Z,7.30
2023-11-18T19:55:02.073Z,7.31
2023-11-18T19:59:05.964Z,7.29
2023-11-18T20:03:09.064Z,7.28
2023-11-18T20:07:11.873Z,7.26
2023-11-18T20:11:16.077Z,7.11
2023-11-18T20:15:19.093Z,7.30
2023-11-18T20:19:22.467Z,7.31
2023-11-18T20:23:27.239Z,7.50
2023-11-18T20:27:31.409Z,7.45
2023-11-18T20:31:34.143Z,7.62
2023-11-18T20:35:37.093Z,7.68
2023-11-18T20:39:41.690Z,7.70
2023-11-18T20:43:46.165Z,7.72
2023-11-18T20:47:49.864Z,7.72
2023-11-18T20:51:54.220Z,7.74
2023-11-18T20:55:56.956Z,7.68
2023-11-18T21:00:01.376Z,7.71
2023-11-18T21:04:04.361Z,7.75
2023-11-18T21:08:09.154Z,7.75
2023-11-18T21:12:18.205Z,7.73
2023-11-18T21:16:23.731Z,7.77
2023-11-18T21:20:26.499Z,7.80
2023-11-18T21:24:29.272Z,7.79
2023-11-18T21:28:32.362Z,7.78
2023-11-18T21:32:42.714Z,7.80
2023-11-18T21:36:45.768Z,7.82
2023-11-18T21:40:48.670Z,7.86
2023-11-18T21:44:52.205Z,7.84
2023-11-18T21:48:56.357Z,7.83
2023-11-18T21:52:59.848Z,7.83
2023-11-18T21:57:02.634Z,7.86
2023-11-18T22:01:06.665Z,7.84
2023-11-18T22:05:11.232Z,7.62
2023-11-18T22:09:14.259Z,7.86
2023-11-18T22:13:17.096Z,7.87
2023-11-18T22:17:20.145Z,7.87
2023-11-18T22:21:24.799Z,7.52
2023-11-18T22:25:28.183Z,7.89
2023-11-18T22:29:31.249Z,7.89
2023-11-18T22:33:35.940Z,7.89
2023-11-18T22:37:40.187Z,7.90
2023-11-18T22:41:42.997Z,7.88
2023-11-18T22:45:47.618Z,7.88
2023-11-18T22:49:50.375Z,7.90
2023-11-18T22:53:55.811Z,7.92
2023-11-18T22:57:58.875Z,7.67
2023-11-18T23:02:03.415Z,7.95
2023-11-18T23:06:10.783Z,7.99
2023-11-18T23:10:16.152Z,7.99
2023-11-18T23:14:18.910Z,8.00
2023-11-18T23:18:21.779Z,8.01
2023-11-18T23:22:25.223Z,8.03
2023-11-18T23:26:30.776Z,8.04
2023-11-18T23:30:33.874Z,8.03
2023-11-18T23:34:36.607Z,7.90
2023-11-18T23:38:39.982Z,8.03
2023-11-18T23:42:44.697Z,8.06
2023-11-18T23:46:47.549Z,8.05
2023-11-18T23:50:51.397Z,8.09
2023-11-18T23:54:53.988Z,8.05
2023-11-18T23:58:58.804Z,8.11
